Main page
METAR-TAF:

METAR-TAF

Airports :

Doha, Qatar

Hamad International Airport

latitude: 25-16-23N, longitude: 51-36-29E, elevation: 4 m

Current weather observation

The report was made 22 minutes ago, at 07:00 UTC
Wind 8 kt from the North/Northwest, varying between West/Northwest and North
Temperature 41°C
Humidity 25%
Pressure 1001 hPa
Visibility 10 km or more
no clouds below 1500 m and no cumulonimbus

METAR: OTHH 190700Z 33008KT 300V360 CAVOK 41/17 Q1001 NOSIG

Time: 10:22 (07:22 UTC)

Forecast

The report was made 2 hours and 21 minutes ago, at 05:01 UTC
Forecast valid from 19 at 06 UTC to 20 at 12 UTC
Wind 5 kt from the West/Northwest
Visibility: 8000 m
Becoming
from 19 at 08 UTC to 19 at 10 UTC
Wind 9 kt from the East/Northeast

TAF: OTHH 190501Z 1906/2012 30005KT 8000 NSC BECMG 1908/1910 06009KT

Weather observations and forecasts of more than 4000 airports (METAR and TAF reports).

The available stations are represented by yellow and red dots on the map.

Hover mouse over dot to see the name of the station.

Then click to see weather observations and forecasts.

To change the map : click on the green buttons with a black cross to zoom in, on the green button with a dash to zoom out, or on the green arrows for adjacent maps.


METAR-TAF: